Flight Track Log - Related Links

Times and Time Zones

All times are in EDT time to prevent confusion due to time zone crossing. See the EJA312 flight status page for this flight to view local times or setup timezone preferences in your user account.

Time Position Orientation Groundspeed Altitude Reporting Facility
EDT Latitude Longitude Course Direction KTS MPH feet Rate Location/Type
Fri 05:00:00 PM 35.0974 -89.2188 85° East  Level Estimated
Fri 05:01:00 PM 35.1058 -89.0967 85° East  Level Estimated
Fri 05:02:00 PM 35.1141 -88.9745 85° East  Level Estimated
Fri 05:03:00 PM 35.1222 -88.8524 85° East  Level Estimated
Fri 05:04:00 PM 35.1303 -88.7302 85° East  Level Estimated
Fri 05:05:00 PM 35.1382 -88.6079 85° East  Level Estimated
Fri 05:05:06 PM 35.2847 -88.9275 86° East 371 427 26,800  Level Memphis Center
Fri 05:06:00 PM 35.1460 -88.4857 86° East  Level Estimated
Fri 05:06:06 PM 35.3003 -88.8153 80° East 371 427 28,500  Level Memphis Center
Fri 05:07:00 PM 35.1537 -88.3634 86° East  Level Estimated
Fri 05:07:06 PM 35.3172 -88.6878 81° East 371 427 30,500  Level Memphis Center
Fri 05:08:00 PM 35.1612 -88.2411 86° East  Level Estimated
Fri 05:08:06 PM 35.3364 -88.5575 80° East 371 427 32,100  Level Memphis Center
Fri 05:09:00 PM 35.1679 -88.1307 86° East  Level Estimated
Fri 05:09:06 PM 35.3592 -88.4144 79° East 376 433 33,700  Level Memphis Center
Fri 05:10:00 PM 35.1745 -88.0203 86° East  Level Estimated
Fri 05:10:06 PM 35.3758 -88.2792 81° East 382 440 35,100  Level Memphis Center
Fri 05:11:06 PM 35.3964 -88.1436 79° East 392 451 36,400 950 Climbing Memphis Center
Fri 05:12:06 PM 35.4125 -88.0031 82° East 403 464 37,000 300 Climbing Memphis Center
Fri 05:13:06 PM 35.4347 -87.8572 79° East 427 491 37,000  Level Memphis Center
Fri 05:14:06 PM 35.4547 -87.7089 81° East 432 497 37,000  Level Memphis Center
Fri 05:15:06 PM 35.4744 -87.5628 81° East 432 497 37,000  Level Memphis Center
Fri 05:16:06 PM 35.4919 -87.4194 81° East 432 497 37,000  Level Memphis Center
Fri 05:17:06 PM 35.5075 -87.2914 81° East 427 491 37,000  Level Memphis Center
Fri 05:18:06 PM 35.5267 -87.1453 81° East 427 491 37,000  Level Memphis Center
Fri 05:19:06 PM 35.5461 -87.0042 80° East 427 491 37,000  Level Memphis Center
Fri 05:20:06 PM 35.5631 -86.8631 82° East 427 491 37,000  Level Memphis Center
Fri 05:21:06 PM 35.5797 -86.7219 82° East 427 491 37,000  Level Memphis Center
Fri 05:22:06 PM 35.5983 -86.5783 81° East 427 491 37,000  Level Memphis Center
Fri 05:23:06 PM 35.6169 -86.4344 81° East 427 491 37,000  Level Memphis Center
Fri 05:24:06 PM 35.6333 -86.2958 82° East 422 486 37,000  Level Memphis Center
Fri 05:25:05 PM 35.6514 -86.1544 81° East 422 486 37,000  Level Memphis Center
Fri 05:26:06 PM 35.6692 -86.0000 82° East 417 480 37,000  Level Memphis Center
Fri 05:27:41 PM 35.6933 -85.7903 82° East 415 478 37,000  Level Atlanta Center
Fri 05:28:41 PM 35.7119 -85.6525 81° East 415 478 37,000  Level Atlanta Center
Fri 05:29:41 PM 35.7283 -85.5097 82° East 410 472 37,000  Level Atlanta Center
Fri 05:30:41 PM 35.7444 -85.3717 82° East 410 472 37,000  Level Atlanta Center
Fri 05:31:41 PM 35.7606 -85.2314 82° East 410 472 37,000  Level Atlanta Center
Fri 05:32:41 PM 35.7742 -85.0933 83° East 410 472 37,000  Level Atlanta Center
Fri 05:33:41 PM 35.7942 -84.9450 81° East 405 466 37,000 -350 Level Atlanta Center
Fri 05:34:41 PM 35.8056 -84.8017 84° East 429 494 36,300 -500 Descending Atlanta Center
Fri 05:35:41 PM 35.8253 -84.6381 81° East 438 504 36,000 -150 Descending Atlanta Center
Fri 05:36:41 PM 35.8425 -84.4922 82° East 433 498 36,000 -350 Level Atlanta Center
Fri 05:37:41 PM 35.8578 -84.3486 82° East 428 493 35,300 -500 Descending Atlanta Center
Fri 05:38:41 PM 35.8725 -84.2003 83° East 428 493 35,000 -700 Descending Atlanta Center
Fri 05:39:41 PM 35.8872 -84.0517 83° East 428 493 33,900 -1,367 Descending Atlanta Center
Fri 05:41:00 PM 35.8995 -83.8894 85° East  Level FlightAware Approximate
Fri 05:41:41 PM 35.8828 -83.7414 85° East 444 511 30,900  Level Atlanta Center
Fri 05:42:41 PM 35.8614 -83.5828 99° East 456 525 29,400 -1,500 Descending Atlanta Center
Fri 05:43:41 PM 35.8419 -83.4189 98° East 470 541 27,900 -1,500 Descending Atlanta Center
Fri 05:44:41 PM 35.8200 -83.2628 100° East 470 541 26,400 -1,450 Descending Atlanta Center
Fri 05:45:41 PM 35.7961 -83.1119 101° East 465 535 25,000 -1,450 Descending Atlanta Center
Fri 05:46:41 PM 35.7739 -82.9611 100° East 453 521 23,500 -1,500 Descending Atlanta Center
Fri 05:47:41 PM 35.7497 -82.8156 102° East 442 509 22,000 -1,500 Descending Atlanta Center
Fri 05:48:41 PM 35.7253 -82.6728 102° East 437 503 20,500 -1,550 Descending Atlanta Center
Fri 05:49:41 PM 35.7069 -82.5350 99° East 417 480 18,900 -1,400 Descending Atlanta Center
Fri 05:50:41 PM 35.7178 -82.4094 84° East 412 474 17,700 -1,150 Descending Atlanta Center
Fri 05:51:41 PM 35.7386 -82.2606 80° East 400 460 16,600 -850 Descending Atlanta Center
Fri 05:52:41 PM 35.7558 -82.1478 79° East 387 445 16,000 -800 Descending Atlanta Center
Fri 05:53:41 PM 35.7706 -82.0167 82° East 387 445 15,000 -1,000 Descending Atlanta Center
Fri 05:54:41 PM 35.7744 -81.8861 88° East 387 445 14,000 -1,000 Descending Atlanta Center
Fri 05:55:41 PM 35.7700 -81.7583 92° East 375 432 13,000 -1,050 Descending Atlanta Center
Fri 05:56:41 PM 35.7678 -81.6381 91° East 355 409 11,900 -1,400 Descending Atlanta Center
Fri 05:57:41 PM 35.7656 -81.5231 91° East 338 389 10,200 -1,950 Descending Atlanta Center
Fri 05:58:41 PM 35.7633 -81.4156 91° East 319 367 8,000 -2,112 Descending Atlanta Center
Fri 05:59:46 PM 35.7569 -81.3133 94° East 272 313 5,800 -1,450 Descending Atlanta Center
Fri 06:00:41 PM 35.7569 -81.2239 90° East 278 320 5,100 -565 Descending Atlanta Center
Fri 06:01:11 PM 35.7558 -81.1778 92° East 278 320 5,000 -100 Descending Atlanta Center
Fri 06:01:41 PM 35.7547 -81.1267 92° East 278 320 5,000  Level Atlanta Center
Fri 06:02:12 PM 35.7514 -81.0833 95° East 283 326 5,000  Level Atlanta Center
Fri 06:02:41 PM 35.7506 -81.0400 91° East 278 320 5,000  Level Atlanta Center
Fri 06:03:13 PM 35.7469 -80.9836 94° East 285 328 5,000  Level Atlanta Center
Fri 06:03:41 PM 35.7481 -80.9453 88° East 278 320 5,000  Level Atlanta Center
Fri 06:04:14 PM 35.7464 -80.8814 92° East 283 326 5,000  Level Atlanta Center
Fri 06:04:41 PM 35.7436 -80.8483 96° East 273 314 5,000  Level Atlanta Center
Fri 06:05:09 PM 35.7422 -80.7944 92° East 282 325 5,000  Level Atlanta Center
Fri 06:05:41 PM 35.7308 -80.7592 112° Southeast 273 314 5,000  Level Atlanta Center
Fri 06:06:15 PM 35.6964 -80.7272 143° Southeast 239 275 5,000  Level Atlanta Center
Fri 06:06:41 PM 35.6733 -80.7206 167° South 232 267 5,000 -98 Level Atlanta Center
Fri 06:07:16 PM 35.6294 -80.7197 179° South 237 273 4,900 -500 Descending Atlanta Center
Fri 06:07:41 PM 35.6022 -80.7108 165° South 226 260 4,500 -984 Descending Atlanta Center
Fri 06:08:17 PM 35.5686 -80.7044 171° South 230 265 3,900 -900 Descending Atlanta Center
Fri 06:08:41 PM 35.5433 -80.6978 168° South 226 260 3,600 -885 Descending Atlanta Center
Fri 06:09:18 PM 35.5056 -80.6892 169° South 213 245 3,000 -700 Descending Atlanta Center
Fri 06:09:41 PM 35.4844 -80.6797 160° South 221 254 2,900 -492 Descending Atlanta Center
Fri 06:10:19 PM 35.4556 -80.6886 194° South 203 234 2,500 -424 Descending Atlanta Center
Fri 06:11:20 PM 35.4194 -80.7411 230° Southwest 190 219 2,200 -148 Descending Atlanta Center
Fri 06:12:21 PM 35.3781 -80.7581 198° South 168 193 2,200 -328 Level Atlanta Center
Fri 06:13:28 PM 35.3403 -80.7442 163° South 139 160 1,500 -541 Descending Atlanta Center
Fri 06:14:23 PM 35.3542 -80.7208 54° Northeast 116 133 1,100 -436 Descending Atlanta Center

Login

Don't have an account? Register now (free) for customized features, flight alerts, and more!